createdAt,value
2022-11-20T02:30:11.255Z,5.73
2022-11-20T02:32:51.560Z,5.83
2022-11-20T02:35:25.156Z,5.89
2022-11-20T02:40:34.446Z,5.97
2022-11-20T02:46:14.604Z,6.00
2022-11-20T02:48:44.061Z,6.03
2022-11-20T02:51:15.817Z,6.01
2022-11-20T02:54:17.394Z,5.86
2022-11-20T02:56:44.162Z,5.80
2022-11-20T03:02:00.373Z,5.78
2022-11-20T03:04:32.476Z,5.76
2022-11-20T08:18:28.950Z,6.64
2022-11-20T08:29:19.029Z,7.15
2022-11-20T08:56:44.520Z,7.62
2022-11-20T08:59:43.904Z,7.66
2022-11-20T09:04:59.424Z,7.53
2022-11-20T09:38:47.117Z,7.38
2022-11-20T09:41:25.146Z,7.67
2022-11-20T11:38:30.925Z,8.28
2022-11-20T11:40:57.519Z,8.40
2022-11-20T11:43:25.199Z,8.28
2022-11-20T11:45:52.136Z,8.47
2022-11-20T11:48:21.439Z,8.64
2022-11-20T17:17:31.230Z,7.73
2022-11-20T17:19:59.157Z,7.72
2022-11-20T17:22:25.937Z,7.82
2022-11-20T17:24:52.574Z,7.81
2022-11-20T17:27:19.245Z,7.47
2022-11-20T17:29:45.819Z,7.43
2022-11-20T17:32:13.703Z,7.36
2022-11-20T17:34:40.379Z,7.37
2022-11-20T17:37:07.221Z,7.36
2022-11-20T17:39:33.612Z,7.27
2022-11-20T17:42:03.597Z,7.25
2022-11-20T17:44:31.494Z,7.15
2022-11-20T17:46:59.231Z,7.32
2022-11-20T17:49:27.878Z,7.20
2022-11-20T17:51:54.531Z,7.30
2022-11-20T17:54:21.627Z,7.34
2022-11-20T17:56:48.506Z,7.33
2022-11-20T17:59:15.204Z,7.47
2022-11-20T18:01:41.845Z,7.51
2022-11-20T18:04:08.557Z,7.36
2022-11-20T18:06:34.959Z,7.43
2022-11-20T18:09:04.125Z,7.63
2022-11-20T18:11:30.994Z,7.53
2022-11-20T18:13:57.575Z,7.65
2022-11-20T18:16:24.976Z,7.49
2022-11-20T18:21:46.887Z,7.72
2022-11-20T18:24:14.452Z,7.48
2022-11-20T18:26:44.726Z,7.45
2022-11-20T18:29:13.006Z,7.19
2022-11-20T18:32:26.129Z,7.29
2022-11-20T18:34:27.153Z,6.86
2022-11-20T18:36:54.022Z,6.76
2022-11-20T18:39:21.394Z,6.81
2022-11-20T18:44:29.031Z,6.94
2022-11-20T18:52:46.349Z,6.79
2022-11-20T18:58:03.098Z,6.40
2022-11-20T19:03:14.060Z,5.98
2022-11-20T19:05:40.537Z,5.75
2022-11-20T19:08:07.155Z,5.92
2022-11-20T19:10:42.162Z,5.98
2022-11-20T19:16:07.704Z,6.07
2022-11-20T19:18:44.816Z,5.72
2022-11-20T19:24:01.931Z,6.07
2022-11-20T19:26:30.227Z,5.81
2022-11-20T19:40:11.463Z,5.50
2022-11-20T19:56:21.224Z,6.01
2022-11-20T19:58:54.503Z,5.89
2022-11-20T20:13:02.466Z,5.97
2022-11-20T20:15:52.037Z,5.87
2022-11-20T20:18:41.899Z,6.00
2022-11-20T20:29:43.471Z,5.71
2022-11-20T20:32:20.745Z,5.58
2022-11-20T21:20:56.089Z,5.90
2022-11-20T21:23:29.127Z,6.05
2022-11-20T23:22:11.404Z,5.73
2022-11-20T23:24:43.911Z,5.81
2022-11-20T23:27:10.799Z,5.74
2022-11-20T23:29:41.831Z,5.63
